Friday, December 14, 2018, 11:56 PM GMT
Back to Local

CWVQ, Ste Anne De Bell 1

Location: , , Canada Lat: 45.433
Local Time: 11:56 PM GMT (23:56 GMT) Lon: -73.933
Time Zone: GMT Elev: 127 ft

Show me the last for .
Show Coded

Time T Td Feel RH Dir Speed Gust Alt SLP Vis Weather Sky Remarks
2018-12-14 23:00 32 33 - 104 350° 2 - - 30.16 0 1-hr Precip Total: 0.03"
2018-12-14 22:00 31 30 - 95 10° 1 - - 30.17 0 1-hr Precip Total: 0.02"
2018-12-14 21:00 30 29 - 94 20° 1 - - 30.18 0 1-hr Precip Total: 0.02"
2018-12-14 20:00 29 27 - 92 10° 2 - - 30.20 0 None
2018-12-14 19:00 28 25 23 87 10° 5 - - 30.21 0 None
2018-12-14 18:00 29 23 25 78 20° 3 - - 30.23 0 None
2018-12-14 17:00 28 22 - 76 40° 2 - - 30.26 0 None
2018-12-14 16:00 26 21 22 79 40° 3 - - 30.31 0 None
2018-12-14 15:00 26 22 22 85 10° 3 - - 30.34 0 None
2018-12-14 14:00 24 19 - 80 10° 2 - - 30.35 0 None
2018-12-14 13:00 22 17 18 81 30° 3 - - 30.36 0 None
2018-12-14 12:00 22 19 15 87 20° 5 - - 30.36 0 None
2018-12-14 11:00 21 16 15 80 20° 5 - - 30.37 0 None
2018-12-14 10:00 21 16 16 79 40° 3 - - 30.36 0 None
2018-12-14 09:00 20 14 15 77 30° 3 - - 30.38 0 None
2018-12-14 08:00 19 15 13 82 40° 5 - - 30.41 0 None
2018-12-14 07:00 18 12 13 74 20° 3 - - 30.42 0 None
2018-12-14 06:00 18 11 12 76 40° 3 - - 30.42 0 None
2018-12-14 05:00 17 11 8 77 360° 6 - - 30.44 0 None
2018-12-14 04:00 16 10 9 76 30° 5 - - 30.44 0 None
2018-12-14 03:00 16 10 10 77 10° 3 - - 30.46 0 None
2018-12-14 02:00 17 10 10 73 30° 5 - - 30.47 0 None
2018-12-14 01:00 16 8 9 70 40° 5 - - 30.47 0 None
2018-12-14 00:00 16 7 7 66 50° 6 - - 30.47 0 None

Support USWX by starting your Amazon purchase here.